My Meet Scores
Karina Gamelski, Ultimate Gymnastics - MyMeetScores.com
Top100 | Top Teams | Upcoming Meets | Completed Meets | Latest | Add Scores | Help| Support | Bookmark and Share

Karina Gamelski, Ultimate Gymnastics
Personal Bests
LevelVault BarsBeamFloorAA
39.5509.400 8.8759.25036.400
48.6009.000 8.9008.95034.975
58.9509.275 9.0508.80035.225
69.1009.825 9.4259.60037.350
78.8509.475 9.1009.20035.975
Scores on America's Top 100as of 01.22.2022
Year Level Vault Bars Beam Floor AA
2021 69.825

Click here to view our exclusive Top 100 Collection
Meet Scores
Date Meet Team Session Level Division Vault Bars Beam Floor AA
2022-01-07 ST JUDE BENEFIT MEET 2022 Ultimate Gymnastics 4B 7 Sr A 8.825 12 8.850 9 8.425 7T 9.100 8 35.200 8
2021-12-17 2021 Women%27s Hawaiian Pineapple Invitational Ultimate Gymnastics of Gurnee 5A 7 Oahu 8.850 6T 0.000 11 9.100 3 8.900 5T 26.850 10
2021-12-03 Wish Classic 2021 Ultimate Gymnastics 5 7 Jr 8.800 5T 9.475 1 8.500 10 9.200 5 35.975 2
2021-05-14 Level 6 and Xcel Silver Regionals Ultimate Gymnastics of Gurnee 3A 6 Jr C1 8.875 24 9.650 1 8.850 20T 9.350 9T 36.725 7
2021-04-15 Illinois level 6 & Xcel Silver State Champion Ultimate Gymnastics of Gurnee 08 6 Multiple 8.475 48 9.825 2 9.425 9T 9.200 50T 36.925 15
2021-02-19 Women's Midwest Open 2021 Ultimate Gymnastics of Gurnee 07B 6 Junior A 8.950 8T 9.400 3 9.175 5T 9.600 4 37.125 5
2021-01-21 King Arthur Invitational Ultimate Gymnastics 4 6 JR 8.450 12 9.200 6T 9.100 8 9.150 8 35.900 6
2021-01-14 2021 Bravo Classic Ultimate Gymnastics 15 6 Jr 9.100 6T 9.500 1 8.600 12T 9.275 7T 36.475 7
2020-12-17 St Nick II Optional Ultimate Gymnastics 1 6 JrB 9.100 7 9.650 1 9.325 4 9.275 7 37.350 2
2020-12-04 Wish Classic Ultimate Gymnastics ALL 6 SR 9.100 8T 8.950 4 8.825 9 9.175 6 36.050 5
2020-02-21 Kinetic Classic Ultimate Gymnastics 03 5 Middle 8.600 58T 8.950 24 9.050 44T 8.550 51 35.150 43
2020-02-07 Harley Meet Womens - Midwest Twisters Ultimate Gymnastics of Gurnee O09 5 Jr B 8.525 5 8.900 3 8.000 11 8.800 4T 34.225 7
2020-01-10 St Jude Benefit Meet Ultimate Gymnastics 1A 5 Jr C 8.900 9T 9.275 3 8.700 8 8.350 13 35.225 8
2019-12-20 2019 Women's Hawaiian Pineapple Classic Ultimate Gymnastics 4B 5 Age 11 8.575 15 9.150 5T 8.400 13 8.550 8 34.675 7T
2019-12-06 Ultimate Wish Classic Ultimate Gymnastics 6 5 JR 8.650 7 9.225 2 8.350 10 8.375 13 34.600 7
2019-11-08 Illinois Judges Cup Ultimate Gymnastics P3 5 All Ages 8.950 9 8.525 17T 8.625 18 8.400 29T 34.500 18
2019-03-22 Illinois Gymnastics State Championships Ultimate Gymnastics 7 4 YT E 8.600 22T 8.750 22 8.650 26T 8.650 27 34.650 26
2019-02-15 Women's Midwest Open Ultimate Gymnastics 09 4 Senior A 7.600 17T 8.600 12 8.000 18T 8.400 17 32.600 17
2019-01-25 King Arthur Invitational Ultimate Gymnastics 9 4 SR A 8.150 13 8.850 10 8.250 13 8.650 10 33.900 11
2019-01-11 St Jude Benefit Meet Ultimate Gymnastics 5A 4 Jr C 8.600 10T 8.675 2T 8.850 8 8.850 6 34.975 5
2018-12-14 Hawaiian Pineapple Classic Ultimate Gymnastics 6A 4 Age10 7.800 13T 8.900 8 8.900 17 8.950 9T 34.550 8
2018-11-30 Ultimate Wish Classic Ultimate Gymnastics 11 4 JR B 8.400 15T 9.000 9 8.450 14T 8.700 10 34.550 11
2018-05-03 Illinois USA Gymnastics Level 3 State Championships Ultimate Gymnsatics 1 3 Jr A 9.375 17 9.025 18 8.750 21 9.250 12 36.400 16T
2018-02-17 Women's Midwest Open Ultimate Gymnsatics 10 3 Sr A 8.850 13 9.000 7 8.475 12 8.950 9T 35.275 10
2018-01-26 King Arthur Invitational Ultimate Gymnsatics 7 3 SR A 9.025 9 8.950 8 8.875 8 8.700 8T 35.550 8
2018-01-19 2018 Bravo Classic Ultimate Gymnsatics 6B 3 Jr 9.225 9T 9.025 11 8.800 11T 8.750 15T 35.800 13
2018-01-12 St Jude Benefit Meet Ultimate Gymnsatics 6A 3 JrC 9.550 2 9.400 2 8.650 9T 8.675 8T 36.275 5
2017-12-01 Ultimate Wish Classic Ultimate Gymnsatics 5 3 JR 9.125 7T 8.700 4T 8.550 4 8.550 7 34.925 5
2017-11-16 Paul Hamm Thanksgiving Classic - Women Ultimate Gymnsatics 1 3 Middle 9.075 7 8.350 15 8.800 7 9.050 6 35.275 10
Get your scores on
a t-shirt, pin, or hoodie